sensor_id;sensor_type;location;lat;lon;timestamp;temperature;humidity
35746;DHT22;21870;42.812;74.628;2024-01-30T00:01:51;3.40;99.90
35746;DHT22;21870;42.812;74.628;2024-01-30T00:04:17;3.40;99.90
35746;DHT22;21870;42.812;74.628;2024-01-30T00:06:44;3.30;99.90
35746;DHT22;21870;42.812;74.628;2024-01-30T00:09:10;3.30;99.90
35746;DHT22;21870;42.812;74.628;2024-01-30T00:11:37;3.30;99.90
35746;DHT22;21870;42.812;74.628;2024-01-30T00:14:04;3.30;99.90
35746;DHT22;21870;42.812;74.628;2024-01-30T00:16:30;3.30;99.90
35746;DHT22;21870;42.812;74.628;2024-01-30T00:18:57;3.30;99.90
35746;DHT22;21870;42.812;74.628;2024-01-30T00:21:23;3.30;99.90
35746;DHT22;21870;42.812;74.628;2024-01-30T00:23:49;3.40;99.90
35746;DHT22;21870;42.812;74.628;2024-01-30T00:26:15;3.40;99.90
35746;DHT22;21870;42.812;74.628;2024-01-30T00:28:42;3.50;99.90
35746;DHT22;21870;42.812;74.628;2024-01-30T00:31:08;3.60;99.90
35746;DHT22;21870;42.812;74.628;2024-01-30T00:33:38;3.60;99.90
35746;DHT22;21870;42.812;74.628;2024-01-30T00:36:05;3.70;99.90
35746;DHT22;21870;42.812;74.628;2024-01-30T00:38:32;3.60;99.90
35746;DHT22;21870;42.812;74.628;2024-01-30T00:40:58;3.70;99.90
35746;DHT22;21870;42.812;74.628;2024-01-30T00:43:24;3.60;99.90
35746;DHT22;21870;42.812;74.628;2024-01-30T00:45:51;3.60;99.90
35746;DHT22;21870;42.812;74.628;2024-01-30T00:48:20;3.70;99.90
35746;DHT22;21870;42.812;74.628;2024-01-30T00:50:46;3.70;99.90
35746;DHT22;21870;42.812;74.628;2024-01-30T00:53:12;3.70;99.90
35746;DHT22;21870;42.812;74.628;2024-01-30T00:55:38;3.70;99.90
35746;DHT22;21870;42.812;74.628;2024-01-30T00:58:05;3.60;99.90
35746;DHT22;21870;42.812;74.628;2024-01-30T01:00:31;3.70;99.90
35746;DHT22;21870;42.812;74.628;2024-01-30T01:03:00;3.80;99.90
35746;DHT22;21870;42.812;74.628;2024-01-30T01:05:26;3.80;99.90
35746;DHT22;21870;42.812;74.628;2024-01-30T01:07:53;3.80;99.90
35746;DHT22;21870;42.812;74.628;2024-01-30T01:10:19;3.80;99.90
35746;DHT22;21870;42.812;74.628;2024-01-30T01:12:46;3.70;99.90
35746;DHT22;21870;42.812;74.628;2024-01-30T01:15:12;3.70;99.90
35746;DHT22;21870;42.812;74.628;2024-01-30T01:17:39;3.80;99.90
35746;DHT22;21870;42.812;74.628;2024-01-30T01:20:06;3.80;99.90
35746;DHT22;21870;42.812;74.628;2024-01-30T01:22:33;3.80;99.90
35746;DHT22;21870;42.812;74.628;2024-01-30T01:25:00;3.80;99.90
35746;DHT22;21870;42.812;74.628;2024-01-30T01:27:26;3.70;99.90
35746;DHT22;21870;42.812;74.628;2024-01-30T01:29:53;3.60;99.90
35746;DHT22;21870;42.812;74.628;2024-01-30T01:32:19;3.60;99.90
35746;DHT22;21870;42.812;74.628;2024-01-30T01:34:45;3.50;99.90
35746;DHT22;21870;42.812;74.628;2024-01-30T01:37:11;3.40;99.90
35746;DHT22;21870;42.812;74.628;2024-01-30T01:39:37;3.30;99.90
35746;DHT22;21870;42.812;74.628;2024-01-30T01:42:03;3.30;99.90
35746;DHT22;21870;42.812;74.628;2024-01-30T01:44:29;3.30;99.90
35746;DHT22;21870;42.812;74.628;2024-01-30T01:46:56;3.30;99.90
35746;DHT22;21870;42.812;74.628;2024-01-30T01:49:27;3.20;99.90
35746;DHT22;21870;42.812;74.628;2024-01-30T01:51:55;3.20;99.90
35746;DHT22;21870;42.812;74.628;2024-01-30T01:54:25;3.20;99.90
35746;DHT22;21870;42.812;74.628;2024-01-30T01:56:52;3.20;99.90
35746;DHT22;21870;42.812;74.628;2024-01-30T01:59:20;3.20;99.90
35746;DHT22;21870;42.812;74.628;2024-01-30T02:01:48;3.20;99.90
35746;DHT22;21870;42.812;74.628;2024-01-30T02:04:16;3.20;99.90
35746;DHT22;21870;42.812;74.628;2024-01-30T02:06:43;3.20;99.90
35746;DHT22;21870;42.812;74.628;2024-01-30T02:09:10;3.20;99.90
35746;DHT22;21870;42.812;74.628;2024-01-30T02:11:36;3.20;99.90
35746;DHT22;21870;42.812;74.628;2024-01-30T02:14:05;3.20;99.90
35746;DHT22;21870;42.812;74.628;2024-01-30T02:16:32;3.20;99.90
35746;DHT22;21870;42.812;74.628;2024-01-30T02:18:58;3.20;99.90
35746;DHT22;21870;42.812;74.628;2024-01-30T02:21:24;3.20;99.90
35746;DHT22;21870;42.812;74.628;2024-01-30T02:23:51;3.20;99.90
35746;DHT22;21870;42.812;74.628;2024-01-30T02:26:18;3.30;99.90
35746;DHT22;21870;42.812;74.628;2024-01-30T02:28:44;3.30;99.90
35746;DHT22;21870;42.812;74.628;2024-01-30T02:31:10;3.30;99.90
35746;DHT22;21870;42.812;74.628;2024-01-30T02:33:36;3.30;99.90
35746;DHT22;21870;42.812;74.628;2024-01-30T02:36:02;3.30;99.90
35746;DHT22;21870;42.812;74.628;2024-01-30T02:38:28;3.40;99.90
35746;DHT22;21870;42.812;74.628;2024-01-30T02:40:54;3.40;99.90
35746;DHT22;21870;42.812;74.628;2024-01-30T02:43:22;3.50;99.90
35746;DHT22;21870;42.812;74.628;2024-01-30T02:45:51;3.50;99.90
35746;DHT22;21870;42.812;74.628;2024-01-30T02:48:17;3.50;99.90
35746;DHT22;21870;42.812;74.628;2024-01-30T02:50:43;3.60;99.90
35746;DHT22;21870;42.812;74.628;2024-01-30T02:53:09;3.70;99.90
35746;DHT22;21870;42.812;74.628;2024-01-30T02:55:35;3.70;99.90
35746;DHT22;21870;42.812;74.628;2024-01-30T02:58:01;3.80;99.90
35746;DHT22;21870;42.812;74.628;2024-01-30T03:00:27;3.80;99.90
35746;DHT22;21870;42.812;74.628;2024-01-30T03:02:53;3.70;99.90
35746;DHT22;21870;42.812;74.628;2024-01-30T03:05:19;3.80;99.90
35746;DHT22;21870;42.812;74.628;2024-01-30T03:07:45;3.70;99.90
35746;DHT22;21870;42.812;74.628;2024-01-30T03:10:11;3.80;99.90
35746;DHT22;21870;42.812;74.628;2024-01-30T03:12:37;3.80;99.90
35746;DHT22;21870;42.812;74.628;2024-01-30T03:15:03;3.80;99.90
35746;DHT22;21870;42.812;74.628;2024-01-30T03:17:29;3.80;99.90
35746;DHT22;21870;42.812;74.628;2024-01-30T03:19:55;3.80;99.90
35746;DHT22;21870;42.812;74.628;2024-01-30T03:22:21;3.80;99.90
35746;DHT22;21870;42.812;74.628;2024-01-30T03:24:47;3.80;99.90
35746;DHT22;21870;42.812;74.628;2024-01-30T03:27:13;3.90;99.90
35746;DHT22;21870;42.812;74.628;2024-01-30T03:29:39;4.00;99.90
35746;DHT22;21870;42.812;74.628;2024-01-30T03:32:05;4.00;99.90
35746;DHT22;21870;42.812;74.628;2024-01-30T03:34:31;4.10;99.90
35746;DHT22;21870;42.812;74.628;2024-01-30T03:36:57;4.20;99.90
35746;DHT22;21870;42.812;74.628;2024-01-30T03:39:23;4.20;99.90
35746;DHT22;21870;42.812;74.628;2024-01-30T03:41:49;4.30;99.90
35746;DHT22;21870;42.812;74.628;2024-01-30T03:44:15;4.20;99.90
35746;DHT22;21870;42.812;74.628;2024-01-30T03:46:41;4.20;99.90
35746;DHT22;21870;42.812;74.628;2024-01-30T03:49:07;4.30;99.90
35746;DHT22;21870;42.812;74.628;2024-01-30T03:51:33;4.20;99.90
35746;DHT22;21870;42.812;74.628;2024-01-30T03:53:59;4.20;99.90
35746;DHT22;21870;42.812;74.628;2024-01-30T03:56:25;4.20;99.90
35746;DHT22;21870;42.812;74.628;2024-01-30T03:58:51;4.20;99.90
35746;DHT22;21870;42.812;74.628;2024-01-30T04:01:17;4.20;99.90
35746;DHT22;21870;42.812;74.628;2024-01-30T04:03:43;4.20;99.90
35746;DHT22;21870;42.812;74.628;2024-01-30T04:06:10;4.30;99.90
35746;DHT22;21870;42.812;74.628;2024-01-30T04:08:37;4.30;99.90
35746;DHT22;21870;42.812;74.628;2024-01-30T04:11:04;4.40;99.90
35746;DHT22;21870;42.812;74.628;2024-01-30T04:13:32;4.30;99.90
35746;DHT22;21870;42.812;74.628;2024-01-30T04:15:59;4.30;99.90
35746;DHT22;21870;42.812;74.628;2024-01-30T04:18:29;4.30;99.90
35746;DHT22;21870;42.812;74.628;2024-01-30T04:20:56;4.20;99.90
35746;DHT22;21870;42.812;74.628;2024-01-30T04:23:22;4.20;99.90
35746;DHT22;21870;42.812;74.628;2024-01-30T04:25:48;4.10;99.90
35746;DHT22;21870;42.812;74.628;2024-01-30T04:28:14;4.10;99.90
35746;DHT22;21870;42.812;74.628;2024-01-30T04:30:40;4.10;99.90
35746;DHT22;21870;42.812;74.628;2024-01-30T04:33:06;4.20;99.90
35746;DHT22;21870;42.812;74.628;2024-01-30T04:35:32;4.30;99.90
35746;DHT22;21870;42.812;74.628;2024-01-30T04:37:58;4.30;99.90
35746;DHT22;21870;42.812;74.628;2024-01-30T04:40:24;4.30;99.90
35746;DHT22;21870;42.812;74.628;2024-01-30T04:42:50;4.30;99.90
35746;DHT22;21870;42.812;74.628;2024-01-30T04:45:16;4.20;99.90
35746;DHT22;21870;42.812;74.628;2024-01-30T04:47:42;4.30;99.90
35746;DHT22;21870;42.812;74.628;2024-01-30T04:50:09;4.30;99.90
35746;DHT22;21870;42.812;74.628;2024-01-30T04:52:35;4.20;99.90
35746;DHT22;21870;42.812;74.628;2024-01-30T04:55:01;4.20;99.90
35746;DHT22;21870;42.812;74.628;2024-01-30T04:57:27;4.10;99.90
35746;DHT22;21870;42.812;74.628;2024-01-30T04:59:53;4.10;99.90
35746;DHT22;21870;42.812;74.628;2024-01-30T05:02:19;4.10;99.90
35746;DHT22;21870;42.812;74.628;2024-01-30T05:04:45;4.00;99.90
35746;DHT22;21870;42.812;74.628;2024-01-30T05:07:11;3.90;99.90
35746;DHT22;21870;42.812;74.628;2024-01-30T05:09:37;3.80;99.90
35746;DHT22;21870;42.812;74.628;2024-01-30T05:12:03;3.70;99.90
35746;DHT22;21870;42.812;74.628;2024-01-30T05:14:29;3.80;99.90
35746;DHT22;21870;42.812;74.628;2024-01-30T05:16:55;3.90;99.90
35746;DHT22;21870;42.812;74.628;2024-01-30T05:19:21;4.00;99.90
35746;DHT22;21870;42.812;74.628;2024-01-30T05:21:49;4.00;99.90
35746;DHT22;21870;42.812;74.628;2024-01-30T05:24:15;3.90;99.90
35746;DHT22;21870;42.812;74.628;2024-01-30T05:26:41;3.90;99.90
35746;DHT22;21870;42.812;74.628;2024-01-30T05:29:07;4.00;99.90
35746;DHT22;21870;42.812;74.628;2024-01-30T05:31:34;4.00;99.90
35746;DHT22;21870;42.812;74.628;2024-01-30T05:34:00;4.10;99.90
35746;DHT22;21870;42.812;74.628;2024-01-30T05:36:26;4.10;99.90
35746;DHT22;21870;42.812;74.628;2024-01-30T05:38:52;4.20;99.90
35746;DHT22;21870;42.812;74.628;2024-01-30T05:41:19;4.30;99.90
35746;DHT22;21870;42.812;74.628;2024-01-30T05:43:46;4.40;99.90
35746;DHT22;21870;42.812;74.628;2024-01-30T05:46:12;4.40;99.90
35746;DHT22;21870;42.812;74.628;2024-01-30T05:48:38;4.60;99.90
35746;DHT22;21870;42.812;74.628;2024-01-30T05:51:04;4.70;99.90
35746;DHT22;21870;42.812;74.628;2024-01-30T05:53:30;4.80;99.90
35746;DHT22;21870;42.812;74.628;2024-01-30T05:55:56;4.90;99.90
35746;DHT22;21870;42.812;74.628;2024-01-30T05:58:22;4.90;99.90
35746;DHT22;21870;42.812;74.628;2024-01-30T06:00:49;5.00;99.90
35746;DHT22;21870;42.812;74.628;2024-01-30T06:03:15;5.20;99.90
35746;DHT22;21870;42.812;74.628;2024-01-30T06:05:41;5.30;99.90
35746;DHT22;21870;42.812;74.628;2024-01-30T06:08:07;5.50;99.90
35746;DHT22;21870;42.812;74.628;2024-01-30T06:10:33;5.40;99.90
35746;DHT22;21870;42.812;74.628;2024-01-30T06:12:59;5.30;99.90
35746;DHT22;21870;42.812;74.628;2024-01-30T06:15:25;5.30;99.90
35746;DHT22;21870;42.812;74.628;2024-01-30T06:17:52;5.20;99.90
35746;DHT22;21870;42.812;74.628;2024-01-30T06:20:17;5.00;99.90
35746;DHT22;21870;42.812;74.628;2024-01-30T06:22:43;5.10;99.90
35746;DHT22;21870;42.812;74.628;2024-01-30T06:25:09;5.00;99.90
35746;DHT22;21870;42.812;74.628;2024-01-30T06:27:37;5.20;99.90
35746;DHT22;21870;42.812;74.628;2024-01-30T06:30:04;5.30;99.90
35746;DHT22;21870;42.812;74.628;2024-01-30T06:32:31;5.40;99.90
35746;DHT22;21870;42.812;74.628;2024-01-30T06:35:03;5.50;99.90
35746;DHT22;21870;42.812;74.628;2024-01-30T06:37:29;5.70;99.90
35746;DHT22;21870;42.812;74.628;2024-01-30T06:39:55;5.80;99.90
35746;DHT22;21870;42.812;74.628;2024-01-30T06:42:21;5.80;99.90
35746;DHT22;21870;42.812;74.628;2024-01-30T06:44:47;6.00;99.90
35746;DHT22;21870;42.812;74.628;2024-01-30T06:47:13;5.90;99.90
35746;DHT22;21870;42.812;74.628;2024-01-30T06:49:39;5.80;99.90
35746;DHT22;21870;42.812;74.628;2024-01-30T06:52:08;5.90;99.90
35746;DHT22;21870;42.812;74.628;2024-01-30T06:54:34;5.90;99.90
35746;DHT22;21870;42.812;74.628;2024-01-30T06:57:00;6.00;99.90
35746;DHT22;21870;42.812;74.628;2024-01-30T06:59:26;5.90;99.90
35746;DHT22;21870;42.812;74.628;2024-01-30T07:01:52;5.90;99.90
35746;DHT22;21870;42.812;74.628;2024-01-30T07:04:18;5.90;99.90
35746;DHT22;21870;42.812;74.628;2024-01-30T07:06:44;5.80;99.90
35746;DHT22;21870;42.812;74.628;2024-01-30T07:09:10;5.60;99.90
35746;DHT22;21870;42.812;74.628;2024-01-30T07:11:36;5.80;99.90
35746;DHT22;21870;42.812;74.628;2024-01-30T07:14:02;5.80;99.90
35746;DHT22;21870;42.812;74.628;2024-01-30T07:16:30;5.60;99.90
35746;DHT22;21870;42.812;74.628;2024-01-30T07:18:56;5.60;99.90
35746;DHT22;21870;42.812;74.628;2024-01-30T07:21:22;5.60;99.90
35746;DHT22;21870;42.812;74.628;2024-01-30T07:23:54;5.50;99.90
35746;DHT22;21870;42.812;74.628;2024-01-30T07:26:20;5.50;99.90
35746;DHT22;21870;42.812;74.628;2024-01-30T07:28:46;5.50;99.90
35746;DHT22;21870;42.812;74.628;2024-01-30T07:31:12;5.50;99.90
35746;DHT22;21870;42.812;74.628;2024-01-30T07:33:38;5.40;99.90
35746;DHT22;21870;42.812;74.628;2024-01-30T07:36:04;5.40;99.90
35746;DHT22;21870;42.812;74.628;2024-01-30T07:38:33;5.40;99.90
35746;DHT22;21870;42.812;74.628;2024-01-30T07:40:59;5.10;99.90
35746;DHT22;21870;42.812;74.628;2024-01-30T07:43:25;5.00;99.90
35746;DHT22;21870;42.812;74.628;2024-01-30T07:45:51;4.80;99.90
35746;DHT22;21870;42.812;74.628;2024-01-30T07:48:17;4.50;99.90
35746;DHT22;21870;42.812;74.628;2024-01-30T07:50:43;4.40;99.90
35746;DHT22;21870;42.812;74.628;2024-01-30T07:53:09;4.30;99.90
35746;DHT22;21870;42.812;74.628;2024-01-30T07:55:35;4.10;99.90
35746;DHT22;21870;42.812;74.628;2024-01-30T07:58:01;3.90;99.90
35746;DHT22;21870;42.812;74.628;2024-01-30T08:00:29;3.80;99.90
35746;DHT22;21870;42.812;74.628;2024-01-30T08:02:55;3.70;99.90
35746;DHT22;21870;42.812;74.628;2024-01-30T08:05:22;3.70;99.90
35746;DHT22;21870;42.812;74.628;2024-01-30T08:07:49;3.70;99.90
35746;DHT22;21870;42.812;74.628;2024-01-30T08:10:15;3.70;99.90
35746;DHT22;21870;42.812;74.628;2024-01-30T08:12:41;3.80;99.90
35746;DHT22;21870;42.812;74.628;2024-01-30T08:15:07;3.80;99.90
35746;DHT22;21870;42.812;74.628;2024-01-30T08:17:34;3.70;99.90
35746;DHT22;21870;42.812;74.628;2024-01-30T08:20:00;3.70;99.90
35746;DHT22;21870;42.812;74.628;2024-01-30T08:22:26;3.80;99.90
35746;DHT22;21870;42.812;74.628;2024-01-30T08:24:52;3.80;99.90
35746;DHT22;21870;42.812;74.628;2024-01-30T08:27:18;3.80;99.90
35746;DHT22;21870;42.812;74.628;2024-01-30T08:29:44;3.80;99.90
35746;DHT22;21870;42.812;74.628;2024-01-30T08:32:10;3.90;99.90
35746;DHT22;21870;42.812;74.628;2024-01-30T08:34:36;3.90;99.90
35746;DHT22;21870;42.812;74.628;2024-01-30T08:37:02;3.90;99.90
35746;DHT22;21870;42.812;74.628;2024-01-30T08:39:28;3.80;99.90
35746;DHT22;21870;42.812;74.628;2024-01-30T08:41:54;3.80;99.90
35746;DHT22;21870;42.812;74.628;2024-01-30T08:44:20;3.80;99.90
35746;DHT22;21870;42.812;74.628;2024-01-30T08:46:46;3.80;99.90
35746;DHT22;21870;42.812;74.628;2024-01-30T08:49:13;3.80;99.90
35746;DHT22;21870;42.812;74.628;2024-01-30T08:51:39;3.70;99.90
35746;DHT22;21870;42.812;74.628;2024-01-30T08:54:05;3.70;99.90
35746;DHT22;21870;42.812;74.628;2024-01-30T08:56:31;3.80;99.90
35746;DHT22;21870;42.812;74.628;2024-01-30T08:58:57;3.70;99.90
35746;DHT22;21870;42.812;74.628;2024-01-30T09:01:24;3.50;99.90
35746;DHT22;21870;42.812;74.628;2024-01-30T09:03:50;3.50;99.90
35746;DHT22;21870;42.812;74.628;2024-01-30T09:06:16;3.30;99.90
35746;DHT22;21870;42.812;74.628;2024-01-30T09:08:42;3.30;99.90
35746;DHT22;21870;42.812;74.628;2024-01-30T09:11:09;3.20;99.90
35746;DHT22;21870;42.812;74.628;2024-01-30T09:13:36;3.20;99.90
35746;DHT22;21870;42.812;74.628;2024-01-30T09:16:02;3.10;99.90
35746;DHT22;21870;42.812;74.628;2024-01-30T09:18:28;3.20;99.90
35746;DHT22;21870;42.812;74.628;2024-01-30T09:20:54;3.10;99.90
35746;DHT22;21870;42.812;74.628;2024-01-30T09:23:20;2.90;99.90
35746;DHT22;21870;42.812;74.628;2024-01-30T09:25:47;2.90;99.90
35746;DHT22;21870;42.812;74.628;2024-01-30T09:28:13;2.90;99.90
35746;DHT22;21870;42.812;74.628;2024-01-30T09:30:40;2.80;99.90
35746;DHT22;21870;42.812;74.628;2024-01-30T09:33:06;2.70;99.90
35746;DHT22;21870;42.812;74.628;2024-01-30T09:35:32;2.70;99.90
35746;DHT22;21870;42.812;74.628;2024-01-30T09:37:59;2.60;99.90
35746;DHT22;21870;42.812;74.628;2024-01-30T09:40:25;2.50;99.90
35746;DHT22;21870;42.812;74.628;2024-01-30T09:42:51;2.60;99.90
35746;DHT22;21870;42.812;74.628;2024-01-30T09:45:26;2.60;99.90
35746;DHT22;21870;42.812;74.628;2024-01-30T09:47:53;2.60;99.90
35746;DHT22;21870;42.812;74.628;2024-01-30T09:50:19;2.60;99.90
35746;DHT22;21870;42.812;74.628;2024-01-30T09:52:46;2.60;99.90
35746;DHT22;21870;42.812;74.628;2024-01-30T09:55:13;2.60;99.90
35746;DHT22;21870;42.812;74.628;2024-01-30T09:57:39;2.60;99.90
35746;DHT22;21870;42.812;74.628;2024-01-30T10:00:06;2.50;99.90
35746;DHT22;21870;42.812;74.628;2024-01-30T10:02:35;2.50;99.90
35746;DHT22;21870;42.812;74.628;2024-01-30T10:05:02;2.50;99.90
35746;DHT22;21870;42.812;74.628;2024-01-30T10:07:28;2.50;99.90
35746;DHT22;21870;42.812;74.628;2024-01-30T10:09:55;2.40;99.90
35746;DHT22;21870;42.812;74.628;2024-01-30T10:12:22;2.40;99.90
35746;DHT22;21870;42.812;74.628;2024-01-30T10:14:48;2.40;99.90
35746;DHT22;21870;42.812;74.628;2024-01-30T10:17:14;2.40;99.90
35746;DHT22;21870;42.812;74.628;2024-01-30T10:19:41;2.30;99.90
35746;DHT22;21870;42.812;74.628;2024-01-30T10:22:07;2.30;99.90
35746;DHT22;21870;42.812;74.628;2024-01-30T10:24:35;2.40;99.90
35746;DHT22;21870;42.812;74.628;2024-01-30T10:27:01;2.40;99.90
35746;DHT22;21870;42.812;74.628;2024-01-30T10:29:28;2.50;99.90
35746;DHT22;21870;42.812;74.628;2024-01-30T10:32:03;2.40;99.90
35746;DHT22;21870;42.812;74.628;2024-01-30T10:34:30;2.40;99.90
35746;DHT22;21870;42.812;74.628;2024-01-30T10:37:11;2.40;99.90
35746;DHT22;21870;42.812;74.628;2024-01-30T10:39:44;2.30;99.90
35746;DHT22;21870;42.812;74.628;2024-01-30T10:42:18;2.40;99.90
35746;DHT22;21870;42.812;74.628;2024-01-30T10:47:28;2.40;99.90
35746;DHT22;21870;42.812;74.628;2024-01-30T10:49:55;2.30;99.90
35746;DHT22;21870;42.812;74.628;2024-01-30T10:52:24;2.30;99.90
35746;DHT22;21870;42.812;74.628;2024-01-30T10:54:55;2.20;99.90
35746;DHT22;21870;42.812;74.628;2024-01-30T10:57:23;2.20;99.90
35746;DHT22;21870;42.812;74.628;2024-01-30T10:59:58;2.10;99.90
35746;DHT22;21870;42.812;74.628;2024-01-30T11:02:25;2.10;99.90
35746;DHT22;21870;42.812;74.628;2024-01-30T11:04:58;2.00;99.90
35746;DHT22;21870;42.812;74.628;2024-01-30T11:07:29;2.00;99.90
35746;DHT22;21870;42.812;74.628;2024-01-30T11:12:27;1.80;99.90
35746;DHT22;21870;42.812;74.628;2024-01-30T11:15:10;1.80;99.90
35746;DHT22;21870;42.812;74.628;2024-01-30T11:20:36;1.80;99.90
35746;DHT22;21870;42.812;74.628;2024-01-30T11:23:02;1.80;99.90
35746;DHT22;21870;42.812;74.628;2024-01-30T11:25:32;1.80;99.90
35746;DHT22;21870;42.812;74.628;2024-01-30T11:27:58;1.80;99.90
35746;DHT22;21870;42.812;74.628;2024-01-30T11:30:31;1.80;99.90
35746;DHT22;21870;42.812;74.628;2024-01-30T11:33:03;1.80;99.90
35746;DHT22;21870;42.812;74.628;2024-01-30T11:35:33;1.70;99.90
35746;DHT22;21870;42.812;74.628;2024-01-30T11:38:00;1.70;99.90
35746;DHT22;21870;42.812;74.628;2024-01-30T11:40:28;1.70;99.90
35746;DHT22;21870;42.812;74.628;2024-01-30T11:42:55;1.70;99.90
35746;DHT22;21870;42.812;74.628;2024-01-30T11:45:22;1.70;99.90
35746;DHT22;21870;42.812;74.628;2024-01-30T11:47:48;1.60;99.90
35746;DHT22;21870;42.812;74.628;2024-01-30T11:50:15;1.60;99.90
35746;DHT22;21870;42.812;74.628;2024-01-30T11:52:41;1.60;99.90
35746;DHT22;21870;42.812;74.628;2024-01-30T11:55:09;1.50;99.90
35746;DHT22;21870;42.812;74.628;2024-01-30T11:57:35;1.50;99.90
35746;DHT22;21870;42.812;74.628;2024-01-30T12:00:05;1.40;99.90
35746;DHT22;21870;42.812;74.628;2024-01-30T12:02:36;1.50;99.90
35746;DHT22;21870;42.812;74.628;2024-01-30T12:05:06;1.50;99.90
35746;DHT22;21870;42.812;74.628;2024-01-30T12:07:33;1.40;99.90
35746;DHT22;21870;42.812;74.628;2024-01-30T12:09:59;1.50;99.90
35746;DHT22;21870;42.812;74.628;2024-01-30T12:12:26;1.30;99.90
35746;DHT22;21870;42.812;74.628;2024-01-30T12:14:52;1.30;99.90
35746;DHT22;21870;42.812;74.628;2024-01-30T12:17:32;1.30;99.90
35746;DHT22;21870;42.812;74.628;2024-01-30T12:20:23;1.30;99.90
35746;DHT22;21870;42.812;74.628;2024-01-30T12:22:50;1.30;99.90
35746;DHT22;21870;42.812;74.628;2024-01-30T12:25:18;1.30;99.90
35746;DHT22;21870;42.812;74.628;2024-01-30T12:27:48;1.20;99.90
35746;DHT22;21870;42.812;74.628;2024-01-30T12:30:19;1.20;99.90
35746;DHT22;21870;42.812;74.628;2024-01-30T12:32:47;1.20;99.90
35746;DHT22;21870;42.812;74.628;2024-01-30T12:35:17;1.20;99.90
35746;DHT22;21870;42.812;74.628;2024-01-30T12:37:45;1.20;99.90
35746;DHT22;21870;42.812;74.628;2024-01-30T12:40:13;1.20;99.90
35746;DHT22;21870;42.812;74.628;2024-01-30T12:42:40;1.20;99.90
35746;DHT22;21870;42.812;74.628;2024-01-30T12:45:08;1.20;99.90
35746;DHT22;21870;42.812;74.628;2024-01-30T12:47:35;1.20;99.90
35746;DHT22;21870;42.812;74.628;2024-01-30T12:50:01;1.20;99.90
35746;DHT22;21870;42.812;74.628;2024-01-30T12:52:27;1.20;99.90
35746;DHT22;21870;42.812;74.628;2024-01-30T12:54:53;1.20;99.90
35746;DHT22;21870;42.812;74.628;2024-01-30T12:57:20;1.20;99.90
35746;DHT22;21870;42.812;74.628;2024-01-30T12:59:46;1.20;99.90
35746;DHT22;21870;42.812;74.628;2024-01-30T13:02:13;1.20;99.90
35746;DHT22;21870;42.812;74.628;2024-01-30T13:04:39;1.20;99.90
35746;DHT22;21870;42.812;74.628;2024-01-30T13:07:05;1.10;99.90
35746;DHT22;21870;42.812;74.628;2024-01-30T13:09:32;1.20;99.90
35746;DHT22;21870;42.812;74.628;2024-01-30T13:11:58;1.20;99.90
35746;DHT22;21870;42.812;74.628;2024-01-30T13:14:25;1.10;99.90
35746;DHT22;21870;42.812;74.628;2024-01-30T13:16:51;1.10;99.90
35746;DHT22;21870;42.812;74.628;2024-01-30T13:19:17;1.10;99.90
35746;DHT22;21870;42.812;74.628;2024-01-30T13:21:43;1.10;99.90
35746;DHT22;21870;42.812;74.628;2024-01-30T13:24:09;1.10;99.90
35746;DHT22;21870;42.812;74.628;2024-01-30T13:26:35;1.10;99.90
35746;DHT22;21870;42.812;74.628;2024-01-30T13:29:01;1.10;99.90
35746;DHT22;21870;42.812;74.628;2024-01-30T13:31:28;1.10;99.90
35746;DHT22;21870;42.812;74.628;2024-01-30T13:33:59;1.10;99.90
35746;DHT22;21870;42.812;74.628;2024-01-30T13:36:25;1.10;99.90
35746;DHT22;21870;42.812;74.628;2024-01-30T13:38:51;1.10;99.90
35746;DHT22;21870;42.812;74.628;2024-01-30T13:41:17;1.10;99.90
35746;DHT22;21870;42.812;74.628;2024-01-30T13:43:44;1.10;99.90
35746;DHT22;21870;42.812;74.628;2024-01-30T13:46:10;1.20;99.90
35746;DHT22;21870;42.812;74.628;2024-01-30T13:48:36;1.20;99.90
35746;DHT22;21870;42.812;74.628;2024-01-30T13:51:02;1.20;99.90
35746;DHT22;21870;42.812;74.628;2024-01-30T13:53:28;1.30;99.90
35746;DHT22;21870;42.812;74.628;2024-01-30T13:55:54;1.20;99.90
35746;DHT22;21870;42.812;74.628;2024-01-30T13:58:20;1.20;99.90
35746;DHT22;21870;42.812;74.628;2024-01-30T14:00:46;1.20;99.90
35746;DHT22;21870;42.812;74.628;2024-01-30T14:03:12;1.20;99.90
35746;DHT22;21870;42.812;74.628;2024-01-30T14:05:38;1.20;99.90
35746;DHT22;21870;42.812;74.628;2024-01-30T14:08:06;1.20;99.90
35746;DHT22;21870;42.812;74.628;2024-01-30T14:10:34;1.20;99.90
35746;DHT22;21870;42.812;74.628;2024-01-30T14:13:03;1.30;99.90
35746;DHT22;21870;42.812;74.628;2024-01-30T14:15:29;1.30;99.90
35746;DHT22;21870;42.812;74.628;2024-01-30T14:17:55;1.30;99.90
35746;DHT22;21870;42.812;74.628;2024-01-30T14:20:21;1.20;99.90
35746;DHT22;21870;42.812;74.628;2024-01-30T14:22:47;1.20;99.90
35746;DHT22;21870;42.812;74.628;2024-01-30T14:25:13;1.20;99.90
35746;DHT22;21870;42.812;74.628;2024-01-30T14:27:39;1.20;99.90
35746;DHT22;21870;42.812;74.628;2024-01-30T14:30:05;1.20;99.90
35746;DHT22;21870;42.812;74.628;2024-01-30T14:32:31;1.20;99.90
35746;DHT22;21870;42.812;74.628;2024-01-30T14:34:57;1.10;99.90
35746;DHT22;21870;42.812;74.628;2024-01-30T14:37:23;1.20;99.90
35746;DHT22;21870;42.812;74.628;2024-01-30T14:39:49;1.20;99.90
35746;DHT22;21870;42.812;74.628;2024-01-30T14:42:16;1.10;99.90
35746;DHT22;21870;42.812;74.628;2024-01-30T14:44:42;1.20;99.90
35746;DHT22;21870;42.812;74.628;2024-01-30T14:47:08;1.20;99.90
35746;DHT22;21870;42.812;74.628;2024-01-30T14:49:34;1.10;99.90
35746;DHT22;21870;42.812;74.628;2024-01-30T14:52:03;1.00;99.90
35746;DHT22;21870;42.812;74.628;2024-01-30T14:54:30;1.00;99.90
35746;DHT22;21870;42.812;74.628;2024-01-30T14:56:56;1.10;99.90
35746;DHT22;21870;42.812;74.628;2024-01-30T14:59:22;1.10;99.90
35746;DHT22;21870;42.812;74.628;2024-01-30T15:01:48;1.10;99.90
35746;DHT22;21870;42.812;74.628;2024-01-30T15:04:14;1.10;99.90
35746;DHT22;21870;42.812;74.628;2024-01-30T15:06:40;1.10;99.90
35746;DHT22;21870;42.812;74.628;2024-01-30T15:09:14;1.10;99.90
35746;DHT22;21870;42.812;74.628;2024-01-30T15:11:46;1.10;99.90
35746;DHT22;21870;42.812;74.628;2024-01-30T15:14:12;1.00;99.90
35746;DHT22;21870;42.812;74.628;2024-01-30T15:16:39;0.90;99.90
35746;DHT22;21870;42.812;74.628;2024-01-30T15:19:05;0.90;99.90
35746;DHT22;21870;42.812;74.628;2024-01-30T15:21:32;0.80;99.90
35746;DHT22;21870;42.812;74.628;2024-01-30T15:23:58;1.00;99.90
35746;DHT22;21870;42.812;74.628;2024-01-30T15:26:24;1.10;99.90
35746;DHT22;21870;42.812;74.628;2024-01-30T15:28:51;1.10;99.90
35746;DHT22;21870;42.812;74.628;2024-01-30T15:31:17;1.10;99.90
35746;DHT22;21870;42.812;74.628;2024-01-30T15:33:43;1.10;99.90
35746;DHT22;21870;42.812;74.628;2024-01-30T15:36:10;1.10;99.90